TAF

Looking Back 6 Hours

Worst Weather Category
LocationTimeVisiblityCeilingWeatherWind SpeedWind Gust
KPBF161739Z620000NONE S 12S 17

  • TAFPBF TAF KPBF 161739Z 1618/1718 17012G17KT P6SM SCT050 BKN200
          FM170300 16006KT P6SM OVC100
          FM170900 17009KT P6SM VCSH OVC050
          FM171200 16008KT P6SM -SHRA OVC015 =